Flight Briefing for CPX424

Departure Arrival
Miami International Airport (KMIA)
Click to view FAA NOTAMS
Tulsa International Airport (KTUL)
Click to view FAA NOTAMS
Departure Time Arrival Time
N/A N/A
Aircraft Distance
B757-200SF 1016nm
Departure METAR Arrival METAR
KMIA 260853Z 27004KT 10SM FEW022 21/18 A3000 RMK AO2 SLP160 T02110178 56012 KTUL 260853Z 32003KT 9SM CLR 07/06 A3034 RMK AO2 SLP272 T00670056 50002
Suggested Route
WINCO2 WINCO CHRRI SMELZ Q116 PATOY JAWJA CABLO MEI SQS LIT


View recent IFR Routes data
Notes



Charts and Procedures

Charts for KMIA
No chart available
Charts for KTUL
No chart available

Windy.com Weather Map